createdAt,value
2022-07-28T00:01:18.613Z,10.35
2022-07-28T00:03:49.152Z,9.98
2022-07-28T00:06:17.597Z,8.43
2022-07-28T00:08:47.005Z,10.48
2022-07-28T00:11:15.134Z,11.18
2022-07-28T00:13:43.330Z,10.63
2022-07-28T00:16:11.495Z,13.10
2022-07-28T00:18:39.864Z,10.07
2022-07-28T00:21:08.221Z,10.20
2022-07-28T00:23:38.866Z,10.95
2022-07-28T00:26:10.508Z,11.05
2022-07-28T00:28:38.611Z,11.35
2022-07-28T00:31:12.409Z,11.82
2022-07-28T00:33:41.858Z,11.60
2022-07-28T00:36:11.764Z,12.20
2022-07-28T00:38:40.824Z,11.70
2022-07-28T00:41:13.264Z,12.07
2022-07-28T00:43:42.519Z,12.27
2022-07-28T00:46:10.841Z,12.40
2022-07-28T00:48:39.855Z,14.30
2022-07-28T00:51:09.595Z,13.43
2022-07-28T00:53:38.502Z,12.43
2022-07-28T00:56:07.279Z,15.13
2022-07-28T00:58:38.254Z,13.95
2022-07-28T01:01:07.501Z,15.27
2022-07-28T01:03:37.710Z,14.52
2022-07-28T01:06:16.642Z,14.52
2022-07-28T01:08:59.107Z,14.40
2022-07-28T01:11:42.563Z,14.25
2022-07-28T01:14:22.451Z,15.70
2022-07-28T01:16:57.690Z,15.95
2022-07-28T01:19:37.812Z,15.98
2022-07-28T01:22:10.236Z,16.58
2022-07-28T01:24:52.631Z,15.93
2022-07-28T01:27:46.845Z,15.60
2022-07-28T01:30:36.572Z,14.93
2022-07-28T01:33:13.335Z,15.00
2022-07-28T01:35:45.633Z,16.00
2022-07-28T01:38:15.559Z,15.63
2022-07-28T01:40:50.311Z,16.40
2022-07-28T01:43:24.283Z,15.88
2022-07-28T01:45:56.743Z,15.30
2022-07-28T01:48:28.224Z,15.70
2022-07-28T01:50:57.569Z,14.77
2022-07-28T01:53:27.335Z,15.23
2022-07-28T01:55:56.912Z,15.80
2022-07-28T01:58:29.085Z,14.80
2022-07-28T02:01:00.258Z,16.90
2022-07-28T02:03:31.267Z,15.88
2022-07-28T02:06:03.672Z,14.13
2022-07-28T02:08:34.440Z,16.60
2022-07-28T02:11:20.510Z,14.15
2022-07-28T02:13:51.209Z,17.30
2022-07-28T02:16:23.863Z,17.13
2022-07-28T02:18:54.913Z,14.98
2022-07-28T02:21:26.625Z,14.45
2022-07-28T02:23:57.340Z,15.35
2022-07-28T02:26:29.414Z,18.05
2022-07-28T02:29:01.270Z,15.20
2022-07-28T02:31:37.795Z,15.90
2022-07-28T02:34:11.957Z,16.05
2022-07-28T02:36:44.915Z,16.65
2022-07-28T02:39:22.801Z,17.15
2022-07-28T02:41:56.518Z,14.35
2022-07-28T02:44:29.616Z,16.50
2022-07-28T02:47:00.478Z,15.10
2022-07-28T02:49:33.426Z,14.52
2022-07-28T02:52:04.459Z,15.68
2022-07-28T02:54:33.699Z,14.57
2022-07-28T02:57:02.908Z,14.82
2022-07-28T02:59:32.319Z,14.32
2022-07-28T03:02:01.994Z,17.58
2022-07-28T03:04:49.376Z,16.02
2022-07-28T03:07:18.067Z,16.15
2022-07-28T03:09:48.172Z,15.23
2022-07-28T03:12:16.635Z,17.13
2022-07-28T03:14:44.696Z,15.25
2022-07-28T03:17:14.235Z,14.80
2022-07-28T03:19:42.527Z,16.35
2022-07-28T03:22:10.770Z,13.35
2022-07-28T03:24:43.338Z,14.75
2022-07-28T03:27:16.829Z,15.30
2022-07-28T03:29:47.905Z,15.07
2022-07-28T03:32:19.776Z,15.60
2022-07-28T03:34:48.387Z,15.85
2022-07-28T03:37:24.788Z,14.20
2022-07-28T03:39:55.813Z,14.77
2022-07-28T03:42:25.227Z,16.05
2022-07-28T03:44:54.111Z,14.05
2022-07-28T03:47:24.921Z,14.35
2022-07-28T03:49:52.994Z,15.15
2022-07-28T03:52:21.166Z,15.93
2022-07-28T03:54:49.261Z,19.45
2022-07-28T03:57:17.334Z,13.13
2022-07-28T03:59:45.506Z,14.63
2022-07-28T04:02:13.618Z,14.70
2022-07-28T04:04:43.148Z,15.07
2022-07-28T04:07:11.193Z,16.45
2022-07-28T04:09:39.382Z,15.38
2022-07-28T04:12:08.113Z,14.70
2022-07-28T04:14:36.425Z,15.43
2022-07-28T04:17:04.885Z,14.90
2022-07-28T04:19:32.959Z,15.40
2022-07-28T04:22:02.564Z,15.75
2022-07-28T04:24:30.768Z,14.95
2022-07-28T04:26:59.522Z,14.07
2022-07-28T04:29:27.777Z,14.77
2022-07-28T04:31:55.839Z,14.52
2022-07-28T04:34:24.687Z,14.75
2022-07-28T04:36:53.194Z,15.50
2022-07-28T04:39:24.687Z,16.20
2022-07-28T04:41:52.817Z,14.00
2022-07-28T04:44:21.132Z,15.80
2022-07-28T04:46:49.166Z,13.40
2022-07-28T04:49:17.304Z,17.30
2022-07-28T04:51:49.338Z,15.13
2022-07-28T04:54:20.876Z,14.45
2022-07-28T04:56:53.103Z,14.00
2022-07-28T04:59:21.307Z,13.20
2022-07-28T05:01:49.887Z,12.75
2022-07-28T05:04:18.689Z,15.05
2022-07-28T05:06:47.050Z,11.73
2022-07-28T05:09:15.093Z,13.32
2022-07-28T05:11:43.950Z,12.55
2022-07-28T05:14:13.862Z,10.80
2022-07-28T05:16:42.614Z,11.88
2022-07-28T05:19:11.267Z,9.73
2022-07-28T05:21:39.389Z,10.68
2022-07-28T05:24:08.733Z,11.10
2022-07-28T05:26:36.991Z,11.23
2022-07-28T05:29:05.176Z,8.45
2022-07-28T05:31:34.630Z,10.90
2022-07-28T05:34:03.336Z,11.15
2022-07-28T05:42:35.778Z,8.63
2022-07-28T05:45:16.467Z,7.70
2022-07-28T05:47:48.323Z,8.63
2022-07-28T05:50:21.007Z,8.10
2022-07-28T05:52:49.275Z,7.63
2022-07-28T05:55:18.361Z,7.68
2022-07-28T05:57:47.133Z,8.55
2022-07-28T06:00:16.800Z,9.32
2022-07-28T06:02:53.480Z,8.45
2022-07-28T06:05:23.438Z,7.18
2022-07-28T06:07:52.389Z,7.20
2022-07-28T06:10:21.937Z,7.72
2022-07-28T06:12:53.063Z,6.57
2022-07-28T06:15:22.639Z,6.38
2022-07-28T06:17:55.213Z,7.65
2022-07-28T06:20:24.519Z,5.65
2022-07-28T06:22:55.329Z,8.55
2022-07-28T06:25:25.184Z,6.43
2022-07-28T06:27:54.934Z,6.30
2022-07-28T06:48:56.923Z,6.75
2022-07-28T06:51:26.191Z,7.80
2022-07-28T06:53:55.889Z,5.38
2022-07-28T06:56:24.025Z,4.35
2022-07-28T06:58:52.117Z,4.10
2022-07-28T07:01:20.430Z,4.53
2022-07-28T07:03:48.737Z,5.07
2022-07-28T07:06:18.362Z,5.03
2022-07-28T07:08:47.292Z,6.43
2022-07-28T07:11:20.747Z,3.30
2022-07-28T07:14:18.162Z,5.22
2022-07-28T07:16:46.702Z,3.13
2022-07-28T07:19:15.974Z,3.17
2022-07-28T07:21:45.579Z,4.22
2022-07-28T07:24:14.028Z,3.13
2022-07-28T07:26:42.342Z,4.38
2022-07-28T07:29:11.213Z,3.58
2022-07-28T07:31:40.311Z,3.45
2022-07-28T07:34:08.608Z,4.05
2022-07-28T07:36:37.264Z,4.25
2022-07-28T07:39:06.722Z,5.75
2022-07-28T07:41:34.839Z,3.65
2022-07-28T07:44:03.144Z,4.38
2022-07-28T07:46:31.189Z,4.70
2022-07-28T07:48:59.245Z,4.65
2022-07-28T07:51:27.356Z,2.55
2022-07-28T07:53:55.488Z,4.72
2022-07-28T07:56:25.089Z,2.80
2022-07-28T07:58:56.841Z,4.93
2022-07-28T08:01:25.808Z,4.35
2022-07-28T08:03:54.019Z,3.65
2022-07-28T08:06:26.700Z,3.25
2022-07-28T08:08:55.110Z,3.20
2022-07-28T08:11:24.792Z,4.15
2022-07-28T08:13:53.002Z,3.08
2022-07-28T08:16:21.206Z,2.00
2022-07-28T08:18:50.400Z,4.07
2022-07-28T08:21:18.436Z,3.40
2022-07-28T08:23:46.468Z,2.30
2022-07-28T08:26:14.508Z,2.83
2022-07-28T08:28:43.939Z,3.15
2022-07-28T08:31:12.012Z,4.55
2022-07-28T08:33:53.397Z,3.80
2022-07-28T08:36:22.536Z,3.08
2022-07-28T08:38:50.779Z,3.40
2022-07-28T08:41:22.908Z,3.70
2022-07-28T08:43:54.943Z,2.75
2022-07-28T08:46:23.943Z,4.95
2022-07-28T08:48:52.585Z,3.63
2022-07-28T08:51:22.563Z,6.65
2022-07-28T08:53:51.671Z,3.70
2022-07-28T08:56:21.368Z,3.17
2022-07-28T08:58:49.405Z,4.95
2022-07-28T09:01:19.397Z,2.45
2022-07-28T09:03:47.812Z,3.08
2022-07-28T09:06:16.093Z,4.65
2022-07-28T09:08:44.332Z,3.20
2022-07-28T09:11:12.448Z,2.95
2022-07-28T09:13:40.516Z,2.88
2022-07-28T09:16:08.636Z,2.67
2022-07-28T09:18:38.081Z,5.35
2022-07-28T09:21:06.081Z,4.22
2022-07-28T09:23:44.850Z,3.13
2022-07-28T09:26:13.428Z,2.78
2022-07-28T09:28:49.435Z,4.18
2022-07-28T09:31:18.392Z,4.22
2022-07-28T09:34:00.494Z,3.97
2022-07-28T09:36:29.686Z,2.58
2022-07-28T09:38:59.180Z,3.10
2022-07-28T09:41:27.527Z,2.50
2022-07-28T09:43:55.959Z,2.63
2022-07-28T09:46:29.218Z,6.13
2022-07-28T09:49:00.969Z,3.53
2022-07-28T09:51:31.049Z,3.72
2022-07-28T09:54:09.468Z,3.67
2022-07-28T09:56:38.412Z,4.72
2022-07-28T09:59:08.077Z,2.88
2022-07-28T10:01:52.323Z,3.30
2022-07-28T10:04:32.576Z,4.93
2022-07-28T10:07:06.599Z,2.70
2022-07-28T10:09:35.179Z,4.38
2022-07-28T10:12:16.505Z,4.32
2022-07-28T10:14:46.268Z,2.80
2022-07-28T10:17:24.526Z,4.00
2022-07-28T10:19:55.128Z,2.47
2022-07-28T10:22:26.337Z,4.20
2022-07-28T10:24:56.633Z,3.50
2022-07-28T10:27:26.184Z,3.25
2022-07-28T10:29:59.584Z,2.85
2022-07-28T10:32:29.620Z,2.85
2022-07-28T10:35:04.141Z,3.00
2022-07-28T10:37:35.318Z,4.20
2022-07-28T10:40:10.364Z,2.60
2022-07-28T10:45:10.482Z,2.47
2022-07-28T10:47:38.870Z,4.07
2022-07-28T10:50:09.690Z,4.82
2022-07-28T10:52:49.847Z,3.70
2022-07-28T10:55:24.499Z,4.45
2022-07-28T10:58:10.997Z,2.50
2022-07-28T11:00:56.160Z,3.03
2022-07-28T11:03:40.063Z,2.88
2022-07-28T11:06:30.735Z,3.45
2022-07-28T11:09:00.475Z,3.85
2022-07-28T11:11:45.026Z,2.20
2022-07-28T11:14:37.342Z,3.22
2022-07-28T11:17:24.615Z,5.22
2022-07-28T11:20:27.288Z,2.78
2022-07-28T11:22:52.151Z,2.97
2022-07-28T11:25:22.146Z,4.63
2022-07-28T11:28:04.996Z,3.33
2022-07-28T11:30:52.353Z,3.17
2022-07-28T11:33:21.336Z,3.22
2022-07-28T11:35:57.516Z,3.88
2022-07-28T11:38:27.988Z,2.58
2022-07-28T11:40:57.422Z,4.00
2022-07-28T11:43:36.116Z,3.55
2022-07-28T11:46:38.512Z,3.22
2022-07-28T11:49:34.952Z,4.03
2022-07-28T11:54:56.795Z,2.80
2022-07-28T11:57:29.444Z,2.80
2022-07-28T12:00:03.227Z,3.60
2022-07-28T12:02:36.474Z,3.10
2022-07-28T12:05:09.459Z,3.35
2022-07-28T12:07:40.864Z,3.47
2022-07-28T12:13:27.068Z,3.28
2022-07-28T12:15:55.144Z,3.15
2022-07-28T12:18:24.922Z,2.75
2022-07-28T12:20:54.791Z,4.13
2022-07-28T12:23:39.352Z,3.58
2022-07-28T12:26:31.671Z,3.47
2022-07-28T12:29:00.991Z,2.83
2022-07-28T12:31:33.660Z,2.35
2022-07-28T12:34:09.480Z,2.50
2022-07-28T12:36:41.788Z,4.30
2022-07-28T12:39:13.279Z,6.57
2022-07-28T12:41:42.937Z,3.03
2022-07-28T12:44:12.174Z,3.30
2022-07-28T12:46:45.569Z,3.22
2022-07-28T12:49:22.605Z,3.28
2022-07-28T12:51:50.961Z,2.83
2022-07-28T12:54:18.992Z,2.47
2022-07-28T12:56:49.516Z,3.58
2022-07-28T12:59:19.852Z,1.92
2022-07-28T13:01:49.780Z,4.65
2022-07-28T13:04:18.864Z,4.00
2022-07-28T13:06:57.423Z,2.05
2022-07-28T13:09:32.669Z,2.83
2022-07-28T13:12:14.409Z,3.47
2022-07-28T13:14:43.760Z,2.30
2022-07-28T13:17:12.503Z,3.90
2022-07-28T13:19:40.564Z,3.03
2022-07-28T13:22:09.203Z,3.80
2022-07-28T13:24:37.737Z,2.55
2022-07-28T13:27:08.819Z,3.25
2022-07-28T13:29:37.675Z,2.40
2022-07-28T14:06:19.914Z,2.42
2022-07-28T14:11:20.882Z,3.15
2022-07-28T14:13:52.145Z,1.75
2022-07-28T14:16:21.274Z,1.67
2022-07-28T14:18:49.741Z,1.70
2022-07-28T14:21:19.503Z,1.90
2022-07-28T14:23:47.586Z,1.30
2022-07-28T14:26:35.028Z,1.75
2022-07-28T14:29:04.750Z,1.67
2022-07-28T14:31:39.821Z,1.63
2022-07-28T14:34:08.146Z,1.67
2022-07-28T14:36:37.670Z,1.88
2022-07-28T14:39:10.515Z,4.20
2022-07-28T14:41:42.710Z,2.42
2022-07-28T14:44:14.574Z,1.33
2022-07-28T14:46:44.618Z,1.70
2022-07-28T14:50:27.094Z,2.30
2022-07-28T16:42:54.538Z,1.80
2022-07-28T16:45:22.645Z,2.25
2022-07-28T16:47:50.823Z,1.52
2022-07-28T16:50:19.074Z,1.92
2022-07-28T16:52:47.215Z,1.83
2022-07-28T16:55:18.866Z,1.40
2022-07-28T16:57:49.616Z,2.83
2022-07-28T17:00:19.726Z,1.80
2022-07-28T17:02:47.933Z,1.60
2022-07-28T17:05:16.239Z,1.40
2022-07-28T17:07:45.937Z,2.78
2022-07-28T17:10:20.295Z,2.03
2022-07-28T17:12:50.378Z,2.10
2022-07-28T17:15:22.739Z,1.67
2022-07-28T17:17:51.402Z,1.25
2022-07-28T17:20:20.149Z,2.10
2022-07-28T17:22:48.916Z,2.10
2022-07-28T17:28:06.248Z,1.45
2022-07-28T17:30:35.662Z,1.63
2022-07-28T17:33:08.767Z,3.67
2022-07-28T17:35:38.737Z,2.40
2022-07-28T17:38:09.153Z,2.90
2022-07-28T17:40:38.070Z,2.85
2022-07-28T17:43:06.094Z,2.08
2022-07-28T17:45:35.575Z,2.05
2022-07-28T17:48:03.613Z,2.33
2022-07-28T17:50:31.742Z,2.40
2022-07-28T17:53:01.690Z,2.88
2022-07-28T17:55:57.476Z,2.67
2022-07-28T17:58:28.999Z,2.90
2022-07-28T18:01:09.580Z,3.38
2022-07-28T18:03:59.303Z,2.22
2022-07-28T18:06:29.984Z,3.30
2022-07-28T18:08:58.869Z,2.25
2022-07-28T18:11:33.920Z,2.58
2022-07-28T18:14:04.280Z,1.85
2022-07-28T18:16:47.307Z,2.08
2022-07-28T18:19:15.519Z,2.15
2022-07-28T18:21:44.282Z,4.07
2022-07-28T18:24:12.562Z,2.75
2022-07-28T18:26:40.939Z,2.22
2022-07-28T18:29:09.024Z,3.78
2022-07-28T18:31:43.915Z,3.03
2022-07-28T18:34:16.242Z,3.95
2022-07-28T18:36:44.739Z,2.60
2022-07-28T18:39:13.295Z,3.58
2022-07-28T18:41:47.208Z,2.72
2022-07-28T18:44:17.995Z,3.05
2022-07-28T18:46:47.015Z,3.45
2022-07-28T18:49:16.846Z,5.80
2022-07-28T18:51:45.785Z,3.75
2022-07-28T18:54:18.678Z,3.72
2022-07-28T18:56:49.901Z,3.30
2022-07-28T18:59:17.949Z,4.60
2022-07-28T19:01:46.047Z,3.88
2022-07-28T19:04:14.404Z,3.95
2022-07-28T19:06:46.782Z,5.07
2022-07-28T19:09:14.821Z,3.47
2022-07-28T19:11:46.281Z,4.93
2022-07-28T19:14:15.516Z,3.88
2022-07-28T19:16:43.930Z,3.50
2022-07-28T19:19:11.961Z,3.30
2022-07-28T19:21:43.195Z,3.30
2022-07-28T19:24:13.852Z,3.38
2022-07-28T19:26:42.920Z,3.00
2022-07-28T19:29:11.264Z,3.42
2022-07-28T19:31:41.559Z,4.72
2022-07-28T19:34:09.692Z,3.45
2022-07-28T19:36:38.480Z,4.13
2022-07-28T19:39:06.497Z,4.97
2022-07-28T19:41:36.013Z,3.38
2022-07-28T19:44:04.065Z,4.63
2022-07-28T19:46:32.319Z,3.83
2022-07-28T19:49:00.383Z,4.55
2022-07-28T19:51:28.613Z,4.43
2022-07-28T19:53:59.461Z,2.85
2022-07-28T19:56:31.176Z,6.43
2022-07-28T19:59:01.068Z,3.65
2022-07-28T20:01:29.547Z,4.63
2022-07-28T20:04:03.069Z,3.38
2022-07-28T20:06:32.668Z,3.55
2022-07-28T20:09:01.493Z,4.63
2022-07-28T20:11:29.771Z,5.35
2022-07-28T20:13:57.747Z,3.30
2022-07-28T20:16:27.360Z,5.25
2022-07-28T20:18:56.810Z,3.30
2022-07-28T20:21:26.160Z,3.38
2022-07-28T20:23:55.407Z,3.72
2022-07-28T20:26:25.827Z,4.47
2022-07-28T20:28:53.914Z,2.92
2022-07-28T20:31:22.068Z,4.72
2022-07-28T20:33:52.759Z,3.08
2022-07-28T20:36:21.712Z,4.00
2022-07-28T20:38:52.008Z,3.67
2022-07-28T20:41:20.109Z,4.43
2022-07-28T20:44:11.212Z,4.78
2022-07-28T20:46:36.950Z,4.78
2022-07-28T20:49:06.360Z,4.45
2022-07-28T20:51:34.476Z,4.10
2022-07-28T20:54:03.361Z,4.50
2022-07-28T20:56:31.404Z,3.55
2022-07-28T20:59:06.463Z,3.25
2022-07-28T21:01:35.159Z,4.38
2022-07-28T21:04:04.225Z,4.30
2022-07-28T21:06:34.206Z,3.42
2022-07-28T21:09:02.601Z,4.30
2022-07-28T21:11:35.024Z,4.63
2022-07-28T21:14:03.815Z,3.70
2022-07-28T21:16:32.899Z,5.38
2022-07-28T21:19:02.073Z,3.90
2022-07-28T21:21:30.275Z,5.82
2022-07-28T21:23:59.850Z,5.40
2022-07-28T21:26:27.909Z,3.80
2022-07-28T21:29:12.386Z,4.30
2022-07-28T21:32:04.087Z,4.18
2022-07-28T21:34:29.786Z,3.80
2022-07-28T21:36:57.738Z,4.97
2022-07-28T21:39:27.189Z,5.75
2022-07-28T21:41:55.297Z,4.53
2022-07-28T21:44:23.332Z,4.63
2022-07-28T21:46:51.475Z,4.28
2022-07-28T21:49:19.631Z,3.90
2022-07-28T21:51:47.939Z,6.25
2022-07-28T21:54:16.350Z,5.07
2022-07-28T21:56:47.762Z,5.63
2022-07-28T21:59:15.955Z,3.75
2022-07-28T22:01:44.180Z,6.50
2022-07-28T22:04:12.522Z,4.65
2022-07-28T22:06:40.786Z,4.35
2022-07-28T22:09:15.116Z,4.70
2022-07-28T22:11:43.434Z,4.38
2022-07-28T22:14:13.138Z,4.30
2022-07-28T22:16:41.601Z,4.50
2022-07-28T22:19:11.851Z,4.80
2022-07-28T22:21:40.321Z,4.35
2022-07-28T22:24:09.003Z,4.78
2022-07-28T22:26:36.958Z,4.55
2022-07-28T22:29:04.993Z,4.43
2022-07-28T22:31:34.377Z,4.13
2022-07-28T22:34:02.470Z,5.20
2022-07-28T22:36:30.486Z,5.50
2022-07-28T22:38:58.437Z,4.68
2022-07-28T22:41:26.551Z,4.28
2022-07-28T22:43:54.672Z,5.22
2022-07-28T22:46:22.710Z,7.35
2022-07-28T22:48:52.224Z,6.90
2022-07-28T22:51:20.404Z,5.57
2022-07-28T22:53:48.493Z,4.68
2022-07-28T22:56:16.961Z,4.78
2022-07-28T22:58:45.097Z,5.57
2022-07-28T23:01:13.234Z,4.43
2022-07-28T23:03:41.459Z,4.50
2022-07-28T23:06:11.932Z,7.20
2022-07-28T23:08:39.919Z,6.60
2022-07-28T23:11:07.962Z,7.55
2022-07-28T23:13:36.157Z,6.68
2022-07-28T23:16:04.347Z,7.13
2022-07-28T23:18:32.495Z,6.82
2022-07-28T23:21:00.553Z,8.65
2022-07-28T23:23:29.948Z,7.28
2022-07-28T23:25:57.969Z,7.93
2022-07-28T23:28:26.037Z,7.07
2022-07-28T23:30:54.134Z,7.28
2022-07-28T23:33:56.814Z,4.55
2022-07-28T23:36:16.997Z,5.07
2022-07-28T23:38:57.084Z,4.78
2022-07-28T23:41:25.453Z,4.97
2022-07-28T23:43:53.519Z,5.70
2022-07-28T23:46:21.620Z,5.35
2022-07-28T23:48:50.542Z,6.32
2022-07-28T23:51:18.735Z,6.72
2022-07-28T23:53:46.697Z,6.68
2022-07-28T23:56:16.755Z,6.80
2022-07-28T23:58:45.606Z,5.25
